Time;durP1;ratioP1;P1;durP2;ratioP2;P2;SDS_P1;SDS_P2;PMS_P1;PMS_P2;Temp;Humidity;BMP_temperature;BMP_pressure;BME280_temperature;BME280_humidity;BME280_pressure;Samples;Min_cycle;Max_cycle;Signal;HPM_P1;HPM_P2
2021/04/24 00:01:55;;;;;;;13.32;10.20;;;;;;;4.01;66.01;97218.62;1770411;79;21110;-77
2021/04/24 00:04:21;;;;;;;13.78;9.18;;;;;;;3.97;65.51;97218.05;1771780;79;21792;-77
2021/04/24 00:06:47;;;;;;;15.60;8.53;;;;;;;3.97;65.36;97218.05;1768303;79;22612;-77
2021/04/24 00:09:13;;;;;;;16.62;10.85;;;;;;;3.98;65.91;97212.44;1779020;79;21120;-77
2021/04/24 00:11:39;;;;;;;13.95;7.37;;;;;;;3.98;66.12;97206.00;1777251;79;21311;-77
2021/04/24 00:14:05;;;;;;;12.18;7.53;;;;;;;3.96;66.04;97211.27;1767220;79;21239;-77
2021/04/24 00:16:31;;;;;;;15.32;8.88;;;;;;;3.98;65.66;97204.72;1745126;79;21479;-75
2021/04/24 00:18:57;;;;;;;10.95;8.20;;;;;;;4.02;64.96;97210.78;1782756;79;21093;-77
2021/04/24 00:21:23;;;;;;;11.78;7.78;;;;;;;4.09;65.03;97197.80;1778107;79;21139;-77
2021/04/24 00:23:49;;;;;;;14.45;7.75;;;;;;;4.16;65.82;97201.98;1748583;79;21086;-77
2021/04/24 00:26:15;;;;;;;13.30;8.13;;;;;;;4.20;66.08;97195.17;1784879;79;21105;-77
2021/04/24 00:28:41;;;;;;;14.10;9.23;;;;;;;4.22;65.82;97199.72;1773240;79;21424;-77
2021/04/24 00:31:07;;;;;;;14.13;9.50;;;;;;;4.26;65.93;97205.47;1772612;79;21094;-77
2021/04/24 00:33:33;;;;;;;13.15;7.85;;;;;;;4.27;65.23;97201.14;1777282;79;21077;-77
2021/04/24 00:35:59;;;;;;;11.95;7.58;;;;;;;4.28;64.80;97205.34;1783456;79;21331;-77
2021/04/24 00:38:26;;;;;;;12.35;9.18;;;;;;;4.31;64.36;97208.48;1776228;79;21070;-77
2021/04/24 00:40:52;;;;;;;14.03;9.18;;;;;;;4.35;64.21;97207.75;1770207;79;21117;-77
2021/04/24 00:43:18;;;;;;;14.20;7.80;;;;;;;4.38;64.77;97212.65;1746490;79;21098;-77
2021/04/24 00:45:44;;;;;;;15.38;7.80;;;;;;;4.38;64.04;97208.32;1774094;79;21263;-77
2021/04/24 00:48:11;;;;;;;11.95;6.90;;;;;;;4.34;64.09;97200.98;1785839;79;21228;-77
2021/04/24 00:50:38;;;;;;;12.47;7.17;;;;;;;4.34;64.09;97200.98;1782534;79;21113;-77
2021/04/24 00:53:04;;;;;;;13.18;7.05;;;;;;;4.37;64.08;97211.84;1775235;79;21137;-77
2021/04/24 00:55:31;;;;;;;10.35;6.75;;;;;;;4.36;64.47;97202.48;1766897;79;21132;-77
2021/04/24 00:57:58;;;;;;;14.05;6.55;;;;;;;4.35;64.38;97203.42;1752357;79;21145;-77
2021/04/24 01:00:25;;;;;;;8.33;6.20;;;;;;;4.33;64.18;97204.49;1753445;80;21088;-77
2021/04/24 01:02:51;;;;;;;11.78;6.87;;;;;;;4.32;63.91;97201.58;1753934;80;21124;-77
2021/04/24 01:05:25;;;;;;;12.68;7.00;;;;;;;4.33;63.96;97198.88;1745319;80;21157;-79
2021/04/24 01:07:51;;;;;;;11.12;6.62;;;;;;;4.31;64.26;97194.80;1743290;81;21265;-77
2021/04/24 01:10:17;;;;;;;10.25;6.58;;;;;;;4.31;64.63;97193.52;1716506;81;21376;-76
2021/04/24 01:12:44;;;;;;;13.32;6.03;;;;;;;4.31;64.74;97193.04;1725600;81;21110;-76
2021/04/24 01:15:12;;;;;;;9.48;5.37;;;;;;;4.33;64.69;97194.20;1719381;81;21107;-76
2021/04/24 01:17:40;;;;;;;10.08;6.67;;;;;;;4.38;64.74;97189.02;1754572;80;21317;-76
2021/04/24 01:20:06;;;;;;;11.40;6.65;;;;;;;4.42;64.81;97194.77;1760164;80;21090;-79
2021/04/24 01:22:32;;;;;;;10.35;5.95;;;;;;;4.45;64.52;97193.22;1731630;81;21309;-79
2021/04/24 01:24:59;;;;;;;10.78;6.05;;;;;;;4.47;64.57;97190.05;1743265;80;21133;-79
2021/04/24 01:27:25;;;;;;;12.85;6.55;;;;;;;4.48;64.21;97194.26;1756475;80;21098;-79
2021/04/24 01:29:52;;;;;;;8.85;5.62;;;;;;;4.49;64.56;97194.13;1766047;80;21103;-79
2021/04/24 01:32:18;;;;;;;11.10;6.35;;;;;;;4.51;63.71;97197.86;1749353;80;21101;-79
2021/04/24 01:34:44;;;;;;;11.93;7.30;;;;;;;4.53;64.69;97193.41;1754475;80;21313;-80
2021/04/24 01:37:10;;;;;;;14.15;6.92;;;;;;;4.53;64.13;97189.08;1753853;80;21216;-79
2021/04/24 01:39:36;;;;;;;10.13;6.65;;;;;;;4.54;64.21;97189.89;1765225;80;21106;-79
2021/04/24 01:42:02;;;;;;;14.07;6.50;;;;;;;4.51;63.63;97180.66;1741396;80;21085;-79
2021/04/24 01:44:28;;;;;;;10.43;5.92;;;;;;;4.52;63.39;97181.48;1751363;80;21102;-79
2021/04/24 01:46:54;;;;;;;9.45;6.03;;;;;;;4.52;63.52;97178.91;1744020;80;21097;-79
2021/04/24 01:49:20;;;;;;;9.88;5.95;;;;;;;4.53;63.87;97185.69;1738514;81;21126;-77
2021/04/24 01:51:46;;;;;;;13.32;6.10;;;;;;;4.53;63.49;97185.21;1761594;80;21098;-77
2021/04/24 01:54:12;;;;;;;11.80;5.85;;;;;;;4.53;63.30;97180.53;1748735;80;21088;-77
2021/04/24 01:56:52;;;;;;;12.00;7.10;;;;;;;4.53;63.33;97180.53;1750506;80;21340;-77
2021/04/24 01:59:21;;;;;;;10.63;6.72;;;;;;;4.55;63.51;97180.41;1750312;80;21133;-78
2021/04/24 02:01:51;;;;;;;9.90;5.83;;;;;;;4.55;63.06;97182.98;1756457;80;21125;-77
2021/04/24 02:04:20;;;;;;;10.03;5.70;;;;;;;4.53;63.02;97176.20;1755247;80;21228;-77
2021/04/24 02:06:47;;;;;;;11.68;6.95;;;;;;;4.54;62.91;97178.30;1754869;80;21165;-77
2021/04/24 02:09:15;;;;;;;10.35;7.00;;;;;;;4.50;62.86;97166.16;1739653;81;21300;-76
2021/04/24 02:12:08;;;;;;;9.30;5.85;;;;;;;4.56;62.84;97174.34;1757474;80;21113;-80
2021/04/24 02:14:46;;;;;;;7.90;5.80;;;;;;;4.61;62.72;97178.17;1795333;78;23279;-76
2021/04/24 02:17:23;;;;;;;11.08;7.00;;;;;;;4.57;62.93;97172.94;1782695;79;21215;-76
2021/04/24 07:44:06;;;;;;;9.70;5.62;;;;;;;9.07;56.50;97193.32;1776030;79;22923;-79
2021/04/24 07:46:32;;;;;;;12.25;5.50;;;;;;;9.06;55.71;97200.29;1741021;80;21273;-78
2021/04/24 07:48:58;;;;;;;7.55;4.72;;;;;;;9.07;55.82;97202.40;1700140;82;21350;-79
2021/04/24 07:51:24;;;;;;;9.65;4.58;;;;;;;9.17;55.22;97210.41;1735457;80;21143;-79
2021/04/24 07:53:50;;;;;;;8.18;5.00;;;;;;;9.19;54.98;97199.41;1736663;81;21306;-78
2021/04/24 07:56:16;;;;;;;18.20;7.37;;;;;;;9.26;55.01;97209.48;1726949;80;21129;-77
2021/04/24 07:58:42;;;;;;;6.80;4.40;;;;;;;9.31;54.98;97195.59;1736170;80;21087;-77
2021/04/24 08:01:08;;;;;;;9.45;4.58;;;;;;;9.36;53.97;97200.31;1734058;80;21449;-77
2021/04/24 08:03:34;;;;;;;8.23;4.67;;;;;;;9.44;54.00;97192.59;1743433;80;21110;-77
2021/04/24 08:06:00;;;;;;;10.38;5.20;;;;;;;9.57;53.84;97198.63;1725196;80;21094;-77
2021/04/24 08:08:26;;;;;;;8.58;4.62;;;;;;;9.68;53.57;97201.44;1725955;80;21093;-77
2021/04/24 08:10:52;;;;;;;12.55;6.50;;;;;;;9.77;52.29;97199.22;1747914;80;21142;-77
2021/04/24 08:13:18;;;;;;;14.23;6.78;;;;;;;9.85;53.84;97191.45;1725363;82;21114;-76
2021/04/24 08:15:45;;;;;;;8.50;4.62;;;;;;;10.00;53.66;97185.98;1729770;80;21094;-77
2021/04/24 08:18:11;;;;;;;10.13;5.75;;;;;;;10.13;53.21;97184.23;1717742;82;21372;-77
2021/04/24 08:20:37;;;;;;;8.65;4.55;;;;;;;10.29;53.10;97183.00;1753200;80;21549;-77
2021/04/24 08:23:03;;;;;;;9.10;4.75;;;;;;;10.57;52.08;97184.78;1752221;80;21376;-77
2021/04/24 08:25:29;;;;;;;6.83;4.10;;;;;;;10.57;52.08;97184.78;1741739;80;21102;-77
2021/04/24 08:27:55;;;;;;;3.83;2.50;;;;;;;10.66;50.62;97191.62;1761360;80;21949;-76
2021/04/24 08:30:22;;;;;;;4.95;2.52;;;;;;;10.66;48.99;97188.22;1753665;80;21082;-77
2021/04/24 08:32:49;;;;;;;4.90;2.77;;;;;;;10.65;46.34;97187.89;1735459;80;21071;-77
2021/04/24 08:35:15;;;;;;;6.80;2.58;;;;;;;10.50;47.14;97190.31;1741000;80;21118;-77
2021/04/24 08:37:42;;;;;;;7.50;3.05;;;;;;;10.47;47.69;97188.05;1753449;80;21297;-77
2021/04/24 08:40:09;;;;;;;6.10;2.92;;;;;;;10.58;48.06;97186.92;1747865;80;21106;-79
2021/04/24 08:42:36;;;;;;;6.78;2.55;;;;;;;10.61;47.57;97186.11;1737004;80;21134;-79
2021/04/24 08:45:17;;;;;;;5.85;3.20;;;;;;;10.44;47.33;97183.98;1726710;81;21096;-79
2021/04/24 08:47:50;;;;;;;9.73;4.25;;;;;;;10.55;47.55;97188.03;1718647;81;21405;-77
2021/04/24 08:50:19;;;;;;;8.00;3.40;;;;;;;10.71;48.87;97184.14;1732844;82;21142;-77
2021/04/24 08:52:45;;;;;;;35.85;17.20;;;;;;;10.57;47.93;97189.98;1723029;81;21119;-77
2021/04/24 08:55:17;;;;;;;10.25;5.12;;;;;;;10.34;47.45;97177.31;1713644;81;21311;-77
2021/04/24 08:57:43;;;;;;;68.00;27.17;;;;;;;10.19;46.87;97186.18;1710793;81;21098;-76
2021/04/24 09:00:11;;;;;;;17.02;7.00;;;;;;;10.05;45.40;97185.50;1718950;81;21095;-75
2021/04/24 09:02:43;;;;;;;5.55;2.62;;;;;;;9.99;45.41;97183.06;1740807;81;21258;-79
2021/04/24 09:05:10;;;;;;;;;;;;;;;9.84;42.92;97180.25;1720025;81;21110;-76
2021/04/24 09:07:36;;;;;;;58.17;23.73;;;;;;;9.72;44.07;97181.98;1727734;81;20333;-77
2021/04/24 09:10:04;;;;;;;55.38;21.87;;;;;;;9.66;44.92;97178.73;1736207;81;21437;-77
2021/04/24 09:12:37;;;;;;;22.58;8.03;;;;;;;9.71;44.96;97175.98;1738025;81;21314;-76
2021/04/24 09:15:16;;;;;;;10.05;4.20;;;;;;;9.81;45.50;97179.27;1715135;81;21123;-76
2021/04/24 09:18:01;;;;;;;6.35;3.33;;;;;;;10.00;45.08;97183.87;1727601;81;21292;-76
2021/04/24 09:20:31;;;;;;;13.70;5.17;;;;;;;10.27;44.41;97186.73;1724355;81;21091;-76
2021/04/24 09:23:04;;;;;;;9.93;6.55;;;;;;;10.56;45.04;97179.27;1720895;81;21226;-76
2021/04/24 09:25:46;;;;;;;7.70;4.00;;;;;;;10.83;45.26;97179.44;1727898;81;21103;-76
2021/04/24 09:28:15;;;;;;;;;;;;;;;10.99;44.77;97168.20;1732229;81;21341;-76
2021/04/24 09:30:41;;;;;;;5.12;2.90;;;;;;;10.99;44.77;97182.52;1716238;81;20292;-76
2021/04/24 09:33:11;;;;;;;5.95;3.12;;;;;;;10.98;43.77;97176.98;1718815;81;21498;-76
2021/04/24 09:35:48;;;;;;;10.28;4.58;;;;;;;11.08;43.93;97167.23;1729423;81;21123;-77
2021/04/24 09:38:30;;;;;;;13.95;5.92;;;;;;;11.30;44.29;97161.80;1801877;77;23011;-76
2021/04/24 09:41:12;;;;;;;5.72;3.40;;;;;;;11.36;43.78;97167.14;1812895;78;21058;-77
2021/04/24 09:44:07;;;;;;;5.17;3.02;;;;;;;11.24;44.22;97176.30;1812420;78;21066;-77
2021/04/24 09:46:53;;;;;;;5.80;2.83;;;;;;;10.99;43.54;97170.81;1799247;78;21109;-77
2021/04/24 09:49:32;;;;;;;6.92;3.10;;;;;;;10.91;42.49;97179.45;1817340;78;21140;-77
2021/04/24 09:52:02;;;;;;;9.40;4.78;;;;;;;10.63;42.61;97161.26;1823530;78;21304;-77
2021/04/24 09:54:43;;;;;;;10.68;4.97;;;;;;;10.55;43.45;97170.34;1818629;78;21074;-77
2021/04/24 09:57:14;;;;;;;4.92;3.17;;;;;;;10.49;43.43;97167.42;1827987;78;21313;-77
2021/04/24 10:00:01;;;;;;;7.20;3.58;;;;;;;10.50;42.31;97160.44;1794045;78;21304;-77
2021/04/24 10:02:40;;;;;;;7.20;3.67;;;;;;;10.52;44.00;97161.08;1809173;78;21128;-76
2021/04/24 10:05:16;;;;;;;7.78;4.05;;;;;;;10.78;43.25;97157.03;1816400;78;21273;-76
2021/04/24 10:07:46;;;;;;;14.87;7.03;;;;;;;10.96;43.49;97148.55;1815416;78;21216;-76
2021/04/24 10:10:25;;;;;;;12.73;5.75;;;;;;;11.20;44.14;97155.48;1804978;78;21113;-76
2021/04/24 10:12:56;;;;;;;7.80;4.50;;;;;;;11.38;42.88;97142.25;1812778;78;21303;-77
2021/04/24 10:15:43;;;;;;;27.67;13.05;;;;;;;11.51;43.72;97139.94;1816866;78;21089;-77
2021/04/24 10:18:13;;;;;;;25.97;10.98;;;;;;;11.73;44.22;97139.20;1743817;80;21321;-76
2021/04/24 10:20:43;;;;;;;12.23;5.40;;;;;;;11.68;42.84;97134.16;1753054;81;21154;-79
2021/04/24 10:23:11;;;;;;;18.92;7.45;;;;;;;11.77;43.03;97131.86;1746287;81;21106;-79
2021/04/24 10:25:37;;;;;;;34.35;14.60;;;;;;;11.86;42.71;97130.03;1752958;81;21220;-79
2021/04/24 10:28:03;;;;;;;13.08;7.00;;;;;;;11.75;43.31;97127.81;1757816;81;21561;-78
2021/04/24 10:30:29;;;;;;;26.97;12.58;;;;;;;11.75;43.50;97127.31;1758465;81;21121;-79
2021/04/24 10:32:55;;;;;;;9.70;4.25;;;;;;;11.65;42.65;97134.52;1745388;81;21732;-79
2021/04/24 10:35:25;;;;;;;18.73;7.70;;;;;;;11.50;41.47;97131.00;1762388;81;21121;-79
2021/04/24 10:37:52;;;;;;;8.85;5.85;;;;;;;11.31;41.66;97130.91;1748988;81;21440;-79
2021/04/24 10:40:19;;;;;;;10.78;5.17;;;;;;;11.13;42.11;97127.22;1765302;80;21070;-79
2021/04/24 10:42:52;;;;;;;6.83;3.37;;;;;;;11.20;42.91;97112.55;1736669;81;21126;-79
2021/04/24 10:45:30;;;;;;;5.83;3.05;;;;;;;11.40;43.07;97113.00;1721227;82;21095;-79
2021/04/24 10:47:58;;;;;;;10.70;5.08;;;;;;;11.45;42.10;97111.19;1813302;78;21078;-79
2021/04/24 10:50:46;;;;;;;11.97;4.97;;;;;;;11.63;42.80;97122.16;1797256;78;21090;-76
2021/04/24 10:53:26;;;;;;;10.38;4.85;;;;;;;11.64;42.68;97114.67;1793844;78;21297;-77
2021/04/24 10:55:54;;;;;;;6.87;3.40;;;;;;;11.57;41.40;97117.64;1790706;78;21128;-77
2021/04/24 10:58:24;;;;;;;7.83;3.60;;;;;;;11.40;41.72;97113.00;1804487;78;21106;-77
2021/04/24 11:01:03;;;;;;;6.20;3.55;;;;;;;11.29;42.18;97106.85;1793116;78;21090;-79
2021/04/24 11:03:45;;;;;;;9.50;4.00;;;;;;;11.30;41.95;97103.27;1789876;78;21416;-76
2021/04/24 11:06:16;;;;;;;16.62;7.50;;;;;;;11.45;43.89;97100.77;1795273;78;21075;-76
2021/04/24 11:08:44;;;;;;;10.35;4.67;;;;;;;11.72;43.16;97104.23;1792928;78;21106;-76
2021/04/24 11:11:15;;;;;;;11.48;3.98;;;;;;;11.86;42.22;97104.81;1796013;78;21364;-76
2021/04/24 11:13:44;;;;;;;13.53;5.83;;;;;;;11.83;42.42;97109.55;1791335;79;21204;-76
2021/04/24 11:16:12;;;;;;;8.55;4.05;;;;;;;11.84;43.17;97107.27;1803093;78;21110;-76
2021/04/24 11:18:41;;;;;;;11.20;4.62;;;;;;;11.76;41.14;97105.50;1791621;78;21118;-76
2021/04/24 11:21:11;;;;;;;9.05;4.33;;;;;;;11.64;41.01;97097.75;1750799;79;21224;-76
2021/04/24 11:23:41;;;;;;;5.58;3.58;;;;;;;11.78;41.45;97098.33;1809478;78;21109;-76
2021/04/24 11:26:17;;;;;;;7.70;4.47;;;;;;;11.96;41.35;97087.17;1812221;78;21050;-77
2021/04/24 11:29:12;;;;;;;18.82;12.03;;;;;;;12.00;42.09;97086.33;1806180;78;21161;-77
2021/04/24 11:32:07;;;;;;;17.47;11.93;;;;;;;12.27;42.27;97088.91;1815335;78;21228;-79
2021/04/24 11:34:49;;;;;;;11.12;5.12;;;;;;;12.49;41.81;97088.56;1792074;78;21316;-79
2021/04/24 11:37:23;;;;;;;10.03;7.27;;;;;;;12.72;42.08;97086.73;1791380;78;21260;-79
2021/04/24 11:40:23;;;;;;;6.65;4.45;;;;;;;12.92;42.28;97085.72;1791911;78;21763;-79
2021/04/24 11:43:06;;;;;;;11.65;7.30;;;;;;;12.91;39.28;97076.28;1800791;78;21131;-79
2021/04/24 11:45:52;;;;;;;73.47;39.03;;;;;;;12.52;38.82;97077.78;1799407;78;21079;-79
2021/04/24 11:48:48;;;;;;;24.47;14.47;;;;;;;12.52;41.02;97084.30;1805737;78;21121;-79
2021/04/24 11:51:56;;;;;;;15.78;7.80;;;;;;;12.42;39.98;97084.56;1813138;78;21232;-79
2021/04/24 11:54:39;;;;;;;9.78;5.22;;;;;;;12.30;40.00;97084.16;1773616;79;21102;-79
2021/04/24 11:57:15;;;;;;;21.48;15.50;;;;;;;12.27;40.65;97078.00;1770965;79;21122;-79
2021/04/24 11:59:42;;;;;;;19.95;10.05;;;;;;;12.27;40.89;97079.30;1784464;79;21084;-79
2021/04/24 12:02:20;;;;;;;36.98;16.65;;;;;;;12.29;41.72;97080.42;1750582;80;21112;-77
2021/04/24 12:04:52;;;;;;;20.97;16.35;;;;;;;12.34;40.83;97075.48;1793619;78;21090;-77
2021/04/24 12:07:18;;;;;;;29.72;19.27;;;;;;;12.27;40.63;97078.49;1737420;80;21098;-79
2021/04/24 12:09:53;;;;;;;11.83;6.40;;;;;;;12.34;41.69;97075.48;1743531;81;21162;-77
2021/04/24 12:12:35;;;;;;;40.95;30.08;;;;;;;12.36;39.95;97075.31;1747541;80;21090;-77
2021/04/24 12:15:21;;;;;;;11.95;8.63;;;;;;;12.28;41.15;97071.80;1727596;81;21120;-77
2021/04/24 12:17:53;;;;;;;9.25;5.35;;;;;;;12.37;40.74;97066.05;1715859;80;21300;-77
2021/04/24 12:20:37;;;;;;;15.18;8.33;;;;;;;12.49;40.73;97064.61;1767355;80;21091;-77
2021/04/24 12:23:13;;;;;;;31.65;17.07;;;;;;;12.43;39.56;97067.13;1792918;78;21114;-77
2021/04/24 12:25:42;;;;;;;27.85;15.80;;;;;;;12.36;40.91;97064.39;1808428;78;21267;-77
2021/04/24 12:28:10;;;;;;;14.78;8.28;;;;;;;12.40;41.54;97064.38;1802020;78;21096;-77
2021/04/24 12:30:43;;;;;;;41.23;16.48;;;;;;;12.42;41.26;97062.91;1808242;78;21110;-78
2021/04/24 12:33:14;;;;;;;25.70;11.33;;;;;;;12.37;40.98;97057.41;1790954;78;21062;-77
2021/04/24 12:35:50;;;;;;;16.23;8.28;;;;;;;12.38;41.60;97057.73;1797817;78;21289;-79
2021/04/24 12:38:21;;;;;;;17.45;10.40;;;;;;;12.38;41.69;97058.54;1801964;78;21117;-79
2021/04/24 12:40:53;;;;;;;12.33;7.58;;;;;;;12.44;41.53;97057.82;1802024;78;21101;-77
2021/04/24 12:43:28;;;;;;;13.03;8.53;;;;;;;12.45;40.92;97057.33;1798242;78;21117;-76
2021/04/24 12:45:57;;;;;;;32.67;19.87;;;;;;;12.37;41.62;97058.23;1803400;78;21121;-76
2021/04/24 12:48:27;;;;;;;14.07;7.97;;;;;;;12.33;42.45;97053.02;1804411;78;21127;-77
2021/04/24 12:50:59;;;;;;;14.20;7.17;;;;;;;12.28;41.78;97048.34;1764043;80;21228;-77
2021/04/24 12:56:25;;;;;;;15.83;9.18;;;;;;;12.24;42.66;97051.49;1799142;77;23106;-76
2021/04/24 12:58:54;;;;;;;100.95;44.88;;;;;;;12.19;41.55;97045.48;1804358;78;21086;-77
2021/04/24 13:01:21;;;;;;;28.60;12.20;;;;;;;12.14;42.21;97040.48;1798012;78;21213;-81
2021/04/24 13:03:49;;;;;;;19.37;10.98;;;;;;;12.27;42.89;97041.52;1812473;78;21466;-78
2021/04/24 13:06:23;;;;;;;32.53;16.70;;;;;;;12.47;43.00;97037.11;1807971;78;21275;-78
2021/04/24 13:09:09;;;;;;;17.92;12.10;;;;;;;12.59;43.80;97038.30;1759226;79;21335;-78
2021/04/24 13:11:52;;;;;;;12.60;7.85;;;;;;;12.78;42.33;97033.05;1781881;78;21332;-80
2021/04/24 13:14:24;;;;;;;106.50;63.30;;;;;;;12.74;43.06;97026.59;1797975;78;21323;-78
2021/04/24 13:16:51;;;;;;;17.55;9.83;;;;;;;12.72;43.84;97024.16;1809861;78;21301;-78
2021/04/24 13:19:20;;;;;;;31.73;19.20;;;;;;;12.74;43.29;97020.06;1812645;78;21348;-78
2021/04/24 13:21:49;;;;;;;19.35;11.38;;;;;;;12.63;42.85;97012.19;1797515;78;21115;-77
2021/04/24 13:24:23;;;;;;;14.98;6.95;;;;;;;12.79;43.21;97006.80;1766244;80;21466;-78
2021/04/24 13:26:55;;;;;;;48.33;24.70;;;;;;;12.98;42.65;97005.92;1792391;78;21121;-77
2021/04/24 13:29:26;;;;;;;36.95;22.93;;;;;;;13.08;43.30;97003.36;1756006;80;21088;-78
2021/04/24 13:32:05;;;;;;;15.50;9.17;;;;;;;13.06;43.40;97002.73;1742932;81;21147;-78
2021/04/24 13:34:34;;;;;;;21.12;12.90;;;;;;;13.07;42.79;96997.83;1768091;80;21099;-78
2021/04/24 13:37:11;;;;;;;41.83;24.23;;;;;;;12.99;43.46;97001.02;1786616;78;21110;-78
2021/04/24 13:39:54;;;;;;;29.40;15.35;;;;;;;12.97;43.40;96997.30;1750794;80;21626;-79
2021/04/24 13:42:44;;;;;;;31.20;17.90;;;;;;;13.04;43.59;97002.12;1743245;81;21130;-80
2021/04/24 13:45:20;;;;;;;16.07;10.38;;;;;;;13.04;42.89;97000.81;1725215;80;21989;-78
2021/04/24 13:47:58;;;;;;;20.05;11.18;;;;;;;13.10;42.70;96988.33;1731882;81;21134;-78
2021/04/24 13:50:29;;;;;;;18.73;11.48;;;;;;;13.21;43.75;96994.42;1743268;81;21102;-80
2021/04/24 13:52:55;;;;;;;20.45;12.93;;;;;;;13.28;43.53;96980.14;1769142;79;21232;-80
2021/04/24 13:55:21;;;;;;;45.00;32.45;;;;;;;13.33;43.74;96982.19;1785519;79;21165;-80
2021/04/24 13:57:48;;;;;;;31.30;18.85;;;;;;;13.21;44.29;96980.57;1747847;79;21185;-80
2021/04/24 14:00:15;;;;;;;19.37;11.28;;;;;;;13.07;43.44;96982.18;1744399;79;21094;-80
2021/04/24 14:02:41;;;;;;;17.60;9.33;;;;;;;12.91;43.54;96982.37;1764288;79;21067;-81
2021/04/24 14:05:08;;;;;;;13.50;7.53;;;;;;;12.82;44.02;96984.27;1743526;79;21209;-80
2021/04/24 14:07:34;;;;;;;13.72;7.58;;;;;;;12.67;43.13;96983.95;1759503;80;21123;-78
2021/04/24 14:10:01;;;;;;;27.70;16.82;;;;;;;12.79;43.62;96982.52;1753478;80;21221;-78
2021/04/24 14:12:27;;;;;;;11.15;6.40;;;;;;;12.94;43.93;96978.09;1744014;79;21139;-79
2021/04/24 14:14:53;;;;;;;11.22;6.87;;;;;;;13.10;42.04;96979.70;1750696;79;21082;-78
2021/04/24 14:17:19;;;;;;;15.63;8.58;;;;;;;13.18;43.46;96984.36;1746899;80;21115;-77
2021/04/24 14:19:46;;;;;;;10.75;6.53;;;;;;;13.17;43.32;96985.79;1748613;80;21406;-78
2021/04/24 14:22:14;;;;;;;16.73;9.40;;;;;;;13.17;42.73;96987.09;1741412;79;21108;-79
2021/04/24 14:24:43;;;;;;;12.45;7.30;;;;;;;13.03;42.65;96982.23;1758449;80;21325;-78
2021/04/24 14:27:16;;;;;;;8.75;5.62;;;;;;;12.79;41.72;96979.41;1755056;80;21123;-78
2021/04/24 14:29:42;;;;;;;16.40;9.43;;;;;;;12.66;42.84;96983.14;1750268;79;21091;-78
2021/04/24 14:32:08;;;;;;;23.12;11.10;;;;;;;12.60;43.14;96978.16;1755892;80;21079;-78
2021/04/24 14:34:34;;;;;;;10.28;6.72;;;;;;;12.54;43.08;96973.67;1742506;80;21123;-79
2021/04/24 14:37:01;;;;;;;28.87;15.45;;;;;;;12.48;42.65;96973.56;1693913;82;21119;-78
2021/04/24 14:39:27;;;;;;;24.82;13.95;;;;;;;12.40;44.01;96971.86;1720431;82;21152;-78
2021/04/24 14:41:53;;;;;;;17.17;10.35;;;;;;;12.37;44.46;96967.51;1759733;80;21310;-78
2021/04/24 14:44:19;;;;;;;16.07;8.20;;;;;;;12.29;43.91;96978.31;1746484;79;21353;-80
2021/04/24 14:46:46;;;;;;;14.00;8.40;;;;;;;12.25;43.88;96975.75;1747248;80;21318;-77
2021/04/24 14:49:12;;;;;;;9.93;5.65;;;;;;;12.21;44.62;96977.59;1749638;80;21437;-77
2021/04/24 14:51:39;;;;;;;10.60;5.40;;;;;;;12.14;43.54;96974.87;1752762;80;21138;-80
2021/04/24 14:54:05;;;;;;;15.15;9.03;;;;;;;12.06;43.32;96971.55;1748967;79;21091;-80
2021/04/24 14:56:31;;;;;;;9.45;5.67;;;;;;;12.01;43.80;96978.06;1783465;79;21103;-80
2021/04/24 14:58:58;;;;;;;10.13;5.87;;;;;;;11.99;42.73;96973.53;1775039;79;21079;-80
2021/04/24 15:01:24;;;;;;;11.88;6.35;;;;;;;11.97;43.39;96962.48;1785161;79;21095;-78
2021/04/24 15:03:50;;;;;;;13.53;10.72;;;;;;;11.98;43.92;96964.09;1785025;79;21122;-78
2021/04/24 15:06:16;;;;;;;10.48;7.35;;;;;;;11.98;43.68;96961.98;1773809;79;21159;-80
2021/04/24 15:08:42;;;;;;;16.15;14.05;;;;;;;11.94;42.97;96961.54;1784874;79;21154;-78
2021/04/24 15:11:08;;;;;;;19.60;17.55;;;;;;;11.83;43.44;96959.34;1779965;79;21407;-78
2021/04/24 15:13:34;;;;;;;15.58;10.85;;;;;;;11.78;44.32;96962.13;1776768;79;21086;-79
2021/04/24 15:16:00;;;;;;;12.53;7.22;;;;;;;11.88;44.51;96967.95;1790677;79;21083;-79
2021/04/24 15:18:26;;;;;;;19.05;9.63;;;;;;;12.02;44.23;96958.84;1784623;79;21205;-80
2021/04/24 15:20:54;;;;;;;17.87;10.13;;;;;;;12.05;44.15;96960.81;1747086;81;21115;-80
2021/04/24 15:23:20;;;;;;;14.10;8.20;;;;;;;12.10;44.44;96958.47;1792151;79;21090;-79
2021/04/24 15:25:46;;;;;;;15.10;8.10;;;;;;;12.09;43.91;96959.46;1787766;79;21527;-80
2021/04/24 15:28:12;;;;;;;16.90;11.75;;;;;;;12.01;44.23;96957.72;1776267;79;21102;-77
2021/04/24 15:30:38;;;;;;;32.67;16.42;;;;;;;12.03;44.88;96958.35;1781307;79;21110;-78
2021/04/24 15:33:09;;;;;;;41.28;21.30;;;;;;;12.03;44.90;96956.55;1786257;79;21065;-80
2021/04/24 15:35:35;;;;;;;49.55;27.20;;;;;;;12.14;44.90;96948.82;1767737;80;21269;-80
2021/04/24 15:38:01;;;;;;;48.20;28.30;;;;;;;12.15;44.95;96957.44;1771637;79;21068;-79
2021/04/24 15:40:27;;;;;;;30.43;17.27;;;;;;;12.18;44.94;96950.56;1770938;79;21209;-78
2021/04/24 15:42:53;;;;;;;32.03;19.65;;;;;;;12.04;44.46;96950.89;1778435;79;21209;-78
2021/04/24 15:45:19;;;;;;;38.45;18.10;;;;;;;12.04;44.46;96950.89;1774618;79;21124;-79
2021/04/24 15:47:47;;;;;;;26.23;19.85;;;;;;;11.97;44.41;96947.35;1771474;79;21111;-78
2021/04/24 15:50:19;;;;;;;30.88;22.67;;;;;;;11.91;44.40;96955.38;1753497;81;21101;-77
2021/04/24 15:52:47;;;;;;;22.15;14.90;;;;;;;11.87;45.24;96954.59;1727798;82;21118;-78
2021/04/24 15:55:14;;;;;;;25.57;16.73;;;;;;;11.94;45.13;96951.13;1732393;82;21168;-79
2021/04/24 15:57:50;;;;;;;26.12;19.50;;;;;;;12.08;45.64;96939.61;1728898;81;21264;-78
2021/04/24 16:00:17;;;;;;;31.62;25.57;;;;;;;12.18;45.54;96934.94;1713189;82;21301;-79
2021/04/24 16:02:46;;;;;;;15.95;12.95;;;;;;;12.14;44.72;96932.38;1732092;82;21106;-79
2021/04/24 16:05:16;;;;;;;16.52;11.53;;;;;;;12.05;43.55;96938.67;1729715;82;21137;-79
2021/04/24 16:07:42;;;;;;;18.60;12.63;;;;;;;12.07;44.54;96943.20;1730611;82;21114;-79
2021/04/24 16:10:09;;;;;;;15.03;9.13;;;;;;;12.17;44.87;96937.23;1739794;82;21123;-80
2021/04/24 16:12:36;;;;;;;29.02;15.03;;;;;;;12.23;45.28;96929.53;1729208;82;21356;-80
2021/04/24 16:15:05;;;;;;;19.65;10.88;;;;;;;12.25;45.03;96934.56;1715085;81;21095;-80
2021/04/24 16:17:31;;;;;;;12.35;7.35;;;;;;;12.20;43.68;96930.35;1738742;81;21226;-79
2021/04/24 16:19:57;;;;;;;14.53;8.55;;;;;;;12.13;43.52;96929.46;1752357;81;21217;-79
2021/04/24 16:22:23;;;;;;;22.55;13.25;;;;;;;12.10;44.21;96929.82;1725571;82;21135;-78
2021/04/24 16:24:49;;;;;;;33.83;21.12;;;;;;;12.09;44.20;96930.81;1690523;82;21119;-81
2021/04/24 16:27:15;;;;;;;29.72;14.65;;;;;;;12.05;44.33;96929.06;1724612;82;21107;-80
2021/04/24 16:29:41;;;;;;;13.70;8.78;;;;;;;12.01;44.60;96938.19;1717752;82;21075;-80
2021/04/24 16:32:07;;;;;;;12.05;7.67;;;;;;;11.91;44.24;96935.85;1736948;82;21130;-79
2021/04/24 16:34:33;;;;;;;12.73;7.40;;;;;;;11.82;44.07;96932.98;1734597;81;21119;-78
2021/04/24 16:37:00;;;;;;;12.25;7.35;;;;;;;11.78;44.81;96925.69;1737879;81;21609;-80
2021/04/24 16:39:26;;;;;;;12.00;8.85;;;;;;;11.74;44.18;96925.23;1729747;82;21127;-80
2021/04/24 16:41:52;;;;;;;28.47;15.83;;;;;;;11.71;45.20;96926.86;1729977;82;21063;-80
2021/04/24 16:44:18;;;;;;;22.30;13.28;;;;;;;11.68;45.35;96927.21;1705145;82;21233;-79
2021/04/24 16:46:45;;;;;;;37.10;18.70;;;;;;;11.57;45.13;96924.55;1733705;82;21071;-77
2021/04/24 16:49:11;;;;;;;36.55;17.35;;;;;;;11.47;45.50;96925.76;1753241;81;21067;-81
2021/04/24 16:51:37;;;;;;;39.35;18.65;;;;;;;11.24;45.69;96921.86;1734642;82;21091;-78
2021/04/24 16:54:03;;;;;;;35.90;18.73;;;;;;;11.24;45.69;96921.86;1713405;81;21075;-79
2021/04/24 16:56:29;;;;;;;42.62;22.73;;;;;;;11.11;46.22;96923.72;1716128;81;21092;-79
2021/04/24 16:58:55;;;;;;;51.15;29.98;;;;;;;10.98;46.52;96923.46;1721213;82;21144;-79
2021/04/24 17:01:21;;;;;;;96.85;47.43;;;;;;;10.91;46.88;96928.55;1724348;82;21887;-79
2021/04/24 17:03:47;;;;;;;87.90;44.90;;;;;;;10.80;46.67;96927.61;1721976;82;21146;-79
2021/04/24 17:06:13;;;;;;;75.45;38.92;;;;;;;10.68;46.83;96924.56;1721074;82;21119;-79
2021/04/24 17:08:39;;;;;;;110.72;53.70;;;;;;;10.58;47.04;96930.47;1713890;82;21094;-79